Time,TemperatureF,DewpointF,PressureIn,WindDirection,WindDirectionDegrees,WindSpeedMPH,WindSpeedGustMPH,Humidity,HourlyPrecipIn,Conditions,Clouds,dailyrainin,SoftwareType,DateUTC
2013-02-12 00:00:00,43.2,30.3,29.77,North,349,0.0,2.7,60,0.00,,,0.00,WUHU216WMR968SP,2013-02-12 06:00:00,
2013-02-12 00:05:00,43.2,30.3,29.77,North,349,0.0,0.0,60,0.00,,,0.00,WUHU216WMR968SP,2013-02-12 06:05:00,
2013-02-12 00:10:00,43.0,32.0,29.77,North,349,0.0,0.0,65,0.00,,,0.00,WUHU216WMR968SP,2013-02-12 06:10:00,
2013-02-12 00:15:00,42.8,32.0,29.77,North,349,0.0,0.0,64,0.00,,,0.00,WUHU216WMR968SP,2013-02-12 06:15:00,
2013-02-12 00:20:00,42.8,32.0,29.74,North,349,0.0,0.0,64,0.00,,,0.00,WUHU216WMR968SP,2013-02-12 06:20:00,
2013-02-12 00:25:00,42.8,32.0,29.74,North,349,0.0,0.0,64,0.00,,,0.00,WUHU216WMR968SP,2013-02-12 06:25:00,
2013-02-12 00:30:00,43.0,32.0,29.74,North,349,0.0,0.0,64,0.00,,,0.00,WUHU216WMR968SP,2013-02-12 06:30:00,
2013-02-12 00:35:00,43.2,32.0,29.74,North,349,0.0,0.0,64,0.00,,,0.00,WUHU216WMR968SP,2013-02-12 06:35:00,
2013-02-12 00:40:00,43.2,32.0,29.74,North,349,0.0,0.0,64,0.00,,,0.00,WUHU216WMR968SP,2013-02-12 06:40:00,
2013-02-12 00:45:00,43.2,32.0,29.74,North,349,0.0,0.0,64,0.00,,,0.00,WUHU216WMR968SP,2013-02-12 06:45:00,
2013-02-12 00:50:00,43.2,32.0,29.74,North,349,0.0,2.7,64,0.00,,,0.00,WUHU216WMR968SP,2013-02-12 06:50:00,
2013-02-12 00:55:00,43.3,32.0,29.74,North,349,0.0,2.7,64,0.00,,,0.00,WUHU216WMR968SP,2013-02-12 06:55:00,
2013-02-12 01:00:00,43.3,32.0,29.74,North,349,0.0,0.0,64,0.00,,,0.00,WUHU216WMR968SP,2013-02-12 07:00:00,
2013-02-12 01:05:00,43.2,32.0,29.77,North,349,0.0,0.0,63,0.00,,,0.00,WUHU216WMR968SP,2013-02-12 07:05:00,
2013-02-12 01:10:00,43.2,32.0,29.77,North,349,0.0,0.0,63,0.00,,,0.00,WUHU216WMR968SP,2013-02-12 07:10:00,
2013-02-12 01:15:00,43.0,32.0,29.77,North,349,0.0,0.0,63,0.00,,,0.00,WUHU216WMR968SP,2013-02-12 07:15:00,
2013-02-12 01:20:00,43.0,32.0,29.74,North,349,0.0,0.0,63,0.00,,,0.00,WUHU216WMR968SP,2013-02-12 07:20:00,
2013-02-12 01:25:00,43.0,32.0,29.74,North,349,0.0,0.0,64,0.00,,,0.00,WUHU216WMR968SP,2013-02-12 07:25:00,
2013-02-12 01:30:00,43.0,32.0,29.74,North,349,0.0,0.0,65,0.00,,,0.00,WUHU216WMR968SP,2013-02-12 07:30:00,
2013-02-12 01:35:00,43.0,32.0,29.77,North,349,0.0,0.0,65,0.00,,,0.00,WUHU216WMR968SP,2013-02-12 07:35:00,
2013-02-12 01:40:00,43.0,32.0,29.77,North,349,0.0,0.0,65,0.00,,,0.00,WUHU216WMR968SP,2013-02-12 07:40:00,
2013-02-12 01:45:00,43.0,32.0,29.77,North,349,0.0,0.0,65,0.00,,,0.00,WUHU216WMR968SP,2013-02-12 07:45:00,
2013-02-12 01:50:00,43.0,32.0,29.77,North,349,0.0,0.0,65,0.00,,,0.00,WUHU216WMR968SP,2013-02-12 07:50:00,
2013-02-12 01:55:00,43.0,32.0,29.77,North,349,0.0,0.0,65,0.00,,,0.00,WUHU216WMR968SP,2013-02-12 07:55:00,
2013-02-12 02:00:00,42.8,32.0,29.77,North,349,0.0,0.0,65,0.00,,,0.00,WUHU216WMR968SP,2013-02-12 08:00:00,
2013-02-12 02:05:00,42.6,32.0,29.77,North,349,0.0,0.0,65,0.00,,,0.00,WUHU216WMR968SP,2013-02-12 08:05:00,
2013-02-12 02:10:00,42.4,32.0,29.77,North,349,0.0,0.0,65,0.00,,,0.00,WUHU216WMR968SP,2013-02-12 08:10:00,
2013-02-12 02:15:00,42.3,32.0,29.77,North,349,0.0,0.0,65,0.00,,,0.00,WUHU216WMR968SP,2013-02-12 08:15:00,
2013-02-12 02:20:00,42.1,32.0,29.74,North,349,0.0,0.0,65,0.00,,,0.00,WUHU216WMR968SP,2013-02-12 08:20:00,
2013-02-12 02:25:00,41.9,32.0,29.74,North,349,0.0,0.0,65,0.00,,,0.00,WUHU216WMR968SP,2013-02-12 08:25:00,
2013-02-12 02:30:00,41.7,31.3,29.74,North,349,0.0,3.1,66,0.00,,,0.00,WUHU216WMR968SP,2013-02-12 08:30:00,
2013-02-12 02:35:00,42.1,32.0,29.74,NE,41,2.7,4.5,67,0.00,,,0.00,WUHU216WMR968SP,2013-02-12 08:35:00,
2013-02-12 02:40:00,42.8,32.0,29.74,NE,45,3.1,4.9,67,0.00,,,0.00,WUHU216WMR968SP,2013-02-12 08:40:00,
2013-02-12 02:45:00,43.7,32.0,29.74,NE,53,2.8,4.9,60,0.00,,,0.00,WUHU216WMR968SP,2013-02-12 08:45:00,
2013-02-12 02:50:00,44.2,29.1,29.71,NE,37,0.0,4.9,55,0.00,,,0.00,WUHU216WMR968SP,2013-02-12 08:50:00,
2013-02-12 02:55:00,44.2,27.7,29.71,NE,37,0.0,3.6,52,0.00,,,0.00,WUHU216WMR968SP,2013-02-12 08:55:00,
2013-02-12 03:00:00,43.9,27.4,29.71,NE,37,0.0,0.0,52,0.00,,,0.00,WUHU216WMR968SP,2013-02-12 09:00:00,
2013-02-12 03:05:00,43.5,28.0,29.77,NE,37,0.0,0.0,54,0.00,,,0.00,WUHU216WMR968SP,2013-02-12 09:05:00,
2013-02-12 03:10:00,42.6,27.1,29.77,NE,37,0.0,0.0,54,0.00,,,0.00,WUHU216WMR968SP,2013-02-12 09:10:00,
2013-02-12 03:15:00,42.3,27.3,29.77,NE,37,0.0,0.0,55,0.00,,,0.00,WUHU216WMR968SP,2013-02-12 09:15:00,
2013-02-12 03:21:00,42.1,29.7,29.77,NE,37,0.0,2.7,61,0.00,,,0.00,WUHU216WMR968SP,2013-02-12 09:21:00,
2013-02-12 03:26:00,42.1,30.1,29.77,NE,37,0.0,2.7,62,0.00,,,0.00,WUHU216WMR968SP,2013-02-12 09:26:00,
2013-02-12 03:31:00,41.4,29.4,29.77,NE,37,0.0,2.2,62,0.00,,,0.00,WUHU216WMR968SP,2013-02-12 09:31:00,
2013-02-12 03:36:00,41.2,29.6,29.74,NE,37,0.0,0.0,63,0.00,,,0.00,WUHU216WMR968SP,2013-02-12 09:36:00,
2013-02-12 03:41:00,41.4,31.0,29.74,NE,37,0.0,0.0,66,0.00,,,0.00,WUHU216WMR968SP,2013-02-12 09:41:00,
2013-02-12 03:46:00,41.4,31.3,29.74,NE,37,0.0,0.0,67,0.00,,,0.00,WUHU216WMR968SP,2013-02-12 09:46:00,
2013-02-12 03:51:00,41.4,31.3,29.74,NE,37,0.0,0.0,67,0.00,,,0.00,WUHU216WMR968SP,2013-02-12 09:51:00,
2013-02-12 03:56:00,41.4,31.3,29.74,NE,37,0.0,2.2,67,0.00,,,0.00,WUHU216WMR968SP,2013-02-12 09:56:00,
2013-02-12 04:01:00,41.5,31.4,29.74,NNE,28,2.7,3.1,67,0.00,,,0.00,WUHU216WMR968SP,2013-02-12 10:01:00,
2013-02-12 04:06:00,41.2,31.2,29.74,North,0,3.1,4.0,67,0.00,,,0.00,WUHU216WMR968SP,2013-02-12 10:06:00,
2013-02-12 04:11:00,41.5,32.0,29.74,North,0,0.0,4.0,68,0.00,,,0.00,WUHU216WMR968SP,2013-02-12 10:11:00,
2013-02-12 04:16:00,41.5,31.4,29.74,North,0,0.0,3.1,67,0.00,,,0.00,WUHU216WMR968SP,2013-02-12 10:16:00,
2013-02-12 04:21:00,41.7,31.6,29.74,North,0,0.0,3.1,67,0.00,,,0.00,WUHU216WMR968SP,2013-02-12 10:21:00,
2013-02-12 04:26:00,41.7,30.9,29.74,North,0,0.0,3.1,65,0.00,,,0.00,WUHU216WMR968SP,2013-02-12 10:26:00,
2013-02-12 04:31:00,41.5,30.3,29.74,North,0,0.0,0.0,64,0.00,,,0.00,WUHU216WMR968SP,2013-02-12 10:31:00,
2013-02-12 04:36:00,41.5,30.3,29.71,North,0,0.0,2.7,64,0.00,,,0.00,WUHU216WMR968SP,2013-02-12 10:36:00,
2013-02-12 04:41:00,41.4,29.4,29.71,East,91,0.0,2.7,62,0.00,,,0.00,WUHU216WMR968SP,2013-02-12 10:41:00,
2013-02-12 04:46:00,41.5,29.9,29.71,ENE,69,0.0,3.1,63,0.00,,,0.00,WUHU216WMR968SP,2013-02-12 10:46:00,
2013-02-12 04:51:00,42.1,29.7,29.71,ENE,69,0.0,3.1,61,0.00,,,0.00,WUHU216WMR968SP,2013-02-12 10:51:00,
2013-02-12 04:56:00,42.3,29.5,29.71,ENE,69,0.0,2.2,60,0.00,,,0.00,WUHU216WMR968SP,2013-02-12 10:56:00,
2013-02-12 05:01:00,42.4,28.7,29.71,ENE,69,0.0,3.1,58,0.00,,,0.00,WUHU216WMR968SP,2013-02-12 11:01:00,
2013-02-12 05:06:00,42.6,28.0,29.71,ENE,75,2.2,3.1,56,0.00,,,0.00,WUHU216WMR968SP,2013-02-12 11:06:00,
2013-02-12 05:11:00,42.8,27.3,29.71,NE,50,2.2,3.6,54,0.00,,,0.00,WUHU216WMR968SP,2013-02-12 11:11:00,
2013-02-12 05:16:00,43.2,25.8,29.71,NE,51,4.0,5.8,50,0.00,,,0.00,WUHU216WMR968SP,2013-02-12 11:16:00,
2013-02-12 05:21:00,43.3,24.8,29.71,NE,47,3.6,5.8,48,0.00,,,0.00,WUHU216WMR968SP,2013-02-12 11:21:00,
2013-02-12 05:26:00,43.2,23.2,29.71,NE,49,3.6,5.4,45,0.00,,,0.00,WUHU216WMR968SP,2013-02-12 11:26:00,
2013-02-12 05:31:00,43.0,22.4,29.71,ENE,60,3.6,5.4,44,0.00,,,0.00,WUHU216WMR968SP,2013-02-12 11:31:00,
2013-02-12 05:36:00,43.0,22.4,29.71,NE,53,4.5,6.3,44,0.00,,,0.00,WUHU216WMR968SP,2013-02-12 11:36:00,
2013-02-12 05:41:00,43.0,21.9,29.71,ENE,57,3.2,6.3,43,0.00,,,0.00,WUHU216WMR968SP,2013-02-12 11:41:00,
2013-02-12 05:46:00,42.8,21.7,29.71,NE,53,3.1,4.9,43,0.00,,,0.00,WUHU216WMR968SP,2013-02-12 11:46:00,
2013-02-12 05:51:00,42.6,22.1,29.68,NE,46,4.0,5.4,44,0.00,,,0.00,WUHU216WMR968SP,2013-02-12 11:51:00,
2013-02-12 05:56:00,42.6,22.1,29.68,NE,56,3.3,5.4,44,0.00,,,0.00,WUHU216WMR968SP,2013-02-12 11:56:00,
2013-02-12 06:01:00,42.6,21.5,29.68,ENE,67,3.1,4.9,43,0.00,,,0.00,WUHU216WMR968SP,2013-02-12 12:01:00,
2013-02-12 06:06:00,42.6,21.5,29.65,ENE,64,2.4,4.9,43,0.00,,,0.00,WUHU216WMR968SP,2013-02-12 12:06:00,
2013-02-12 06:11:00,42.3,21.2,29.65,ENE,77,2.7,4.9,43,0.00,,,0.00,WUHU216WMR968SP,2013-02-12 12:11:00,
2013-02-12 06:16:00,42.1,21.0,29.65,East,97,3.1,5.4,43,0.00,,,0.00,WUHU216WMR968SP,2013-02-12 12:16:00,
2013-02-12 06:21:00,42.1,21.6,29.65,East,90,3.0,5.4,44,0.00,,,0.00,WUHU216WMR968SP,2013-02-12 12:21:00,
2013-02-12 06:26:00,42.1,21.6,29.65,East,93,2.7,5.8,44,0.00,,,0.00,WUHU216WMR968SP,2013-02-12 12:26:00,
2013-02-12 06:31:00,41.9,20.9,29.65,ENE,78,2.4,5.8,43,0.00,,,0.00,WUHU216WMR968SP,2013-02-12 12:31:00,
2013-02-12 06:36:00,42.1,21.0,29.68,East,82,2.7,5.8,43,0.00,,,0.00,WUHU216WMR968SP,2013-02-12 12:36:00,
2013-02-12 06:41:00,42.3,21.2,29.68,East,99,2.7,5.4,43,0.00,,,0.00,WUHU216WMR968SP,2013-02-12 12:41:00,
2013-02-12 06:46:00,41.9,20.9,29.68,SE,142,0.0,4.9,43,0.00,,,0.00,WUHU216WMR968SP,2013-02-12 12:46:00,
2013-02-12 06:51:00,41.4,21.5,29.71,SE,142,0.0,3.1,45,0.00,,,0.00,WUHU216WMR968SP,2013-02-12 12:51:00,
2013-02-12 06:56:00,41.0,21.1,29.71,SE,142,0.0,0.0,45,0.00,,,0.00,WUHU216WMR968SP,2013-02-12 12:56:00,
2013-02-12 07:01:00,40.5,21.2,29.71,South,190,2.7,3.6,46,0.00,,,0.00,WUHU216WMR968SP,2013-02-12 13:01:00,
2013-02-12 07:06:00,39.9,22.2,29.71,South,190,0.0,3.6,49,0.00,,,0.00,WUHU216WMR968SP,2013-02-12 13:06:00,
2013-02-12 07:11:00,39.7,23.5,29.71,South,190,0.0,0.0,52,0.00,,,0.00,WUHU216WMR968SP,2013-02-12 13:11:00,
2013-02-12 07:16:00,39.6,24.3,29.71,South,190,0.0,0.0,54,0.00,,,0.00,WUHU216WMR968SP,2013-02-12 13:16:00,
2013-02-12 07:21:00,39.7,24.4,29.71,East,82,0.0,2.7,54,0.00,,,0.00,WUHU216WMR968SP,2013-02-12 13:21:00,
2013-02-12 07:26:00,40.3,24.5,29.71,NE,42,2.7,4.0,53,0.00,,,0.00,WUHU216WMR968SP,2013-02-12 13:26:00,
2013-02-12 07:31:00,40.8,25.0,29.71,NE,42,2.2,4.0,53,0.00,,,0.00,WUHU216WMR968SP,2013-02-12 13:31:00,
2013-02-12 07:36:00,41.5,25.2,29.68,NE,41,2.2,3.6,52,0.00,,,0.00,WUHU216WMR968SP,2013-02-12 13:36:00,
2013-02-12 07:41:00,41.9,25.0,29.68,NE,41,0.0,3.6,51,0.00,,,0.00,WUHU216WMR968SP,2013-02-12 13:41:00,
2013-02-12 07:46:00,42.1,24.7,29.68,NE,43,2.7,3.1,50,0.00,,,0.00,WUHU216WMR968SP,2013-02-12 13:46:00,
2013-02-12 07:51:00,42.1,24.7,29.68,NE,39,2.7,3.1,50,0.00,,,0.00,WUHU216WMR968SP,2013-02-12 13:51:00,
2013-02-12 07:56:00,43.2,24.7,29.68,ENE,60,3.3,4.9,48,0.00,,,0.00,WUHU216WMR968SP,2013-02-12 13:56:00,
2013-02-12 08:02:00,44.2,23.5,29.68,ENE,58,3.1,4.9,44,0.00,,,0.00,WUHU216WMR968SP,2013-02-12 14:02:00,
2013-02-12 08:07:00,44.8,22.9,29.65,ENE,57,3.6,5.8,42,0.00,,,0.00,WUHU216WMR968SP,2013-02-12 14:07:00,
2013-02-12 08:12:00,45.3,22.8,29.65,NE,44,2.9,5.8,41,0.00,,,0.00,WUHU216WMR968SP,2013-02-12 14:12:00,
2013-02-12 08:17:00,45.9,23.3,29.65,NE,36,0.0,4.9,41,0.00,,,0.00,WUHU216WMR968SP,2013-02-12 14:17:00,
2013-02-12 08:22:00,46.2,23.6,29.68,ENE,63,4.0,5.8,41,0.00,,,0.00,WUHU216WMR968SP,2013-02-12 14:22:00,
2013-02-12 08:27:00,47.1,23.2,29.68,NE,39,3.6,5.8,39,0.00,,,0.00,WUHU216WMR968SP,2013-02-12 14:27:00,
2013-02-12 08:32:00,47.7,23.7,29.68,NE,49,4.0,5.4,39,0.00,,,0.00,WUHU216WMR968SP,2013-02-12 14:32:00,
2013-02-12 08:37:00,48.0,23.4,29.68,ENE,66,3.7,6.3,38,0.00,,,0.00,WUHU216WMR968SP,2013-02-12 14:37:00,
2013-02-12 08:42:00,48.6,23.3,29.68,ENE,59,4.5,8.7,37,0.00,,,0.00,WUHU216WMR968SP,2013-02-12 14:42:00,
2013-02-12 08:47:00,49.5,24.1,29.65,NE,51,4.2,8.7,37,0.00,,,0.00,WUHU216WMR968SP,2013-02-12 14:47:00,
2013-02-12 08:52:00,50.4,24.2,29.65,East,97,4.5,6.3,36,0.00,,,0.00,WUHU216WMR968SP,2013-02-12 14:52:00,
2013-02-12 08:57:00,50.9,22.6,29.65,NE,54,5.4,8.1,33,0.00,,,0.00,WUHU216WMR968SP,2013-02-12 14:57:00,
2013-02-12 09:02:00,51.1,22.0,29.65,North,9,6.7,8.7,32,0.00,,,0.00,WUHU216WMR968SP,2013-02-12 15:02:00,
2013-02-12 09:07:00,50.7,21.7,29.65,SE,124,3.6,8.7,32,0.00,,,0.00,WUHU216WMR968SP,2013-02-12 15:07:00,
2013-02-12 09:12:00,50.2,20.5,29.65,NE,37,4.9,8.1,31,0.00,,,0.00,WUHU216WMR968SP,2013-02-12 15:12:00,
2013-02-12 09:17:00,50.0,21.0,29.65,NE,38,5.4,8.1,32,0.00,,,0.00,WUHU216WMR968SP,2013-02-12 15:17:00,
2013-02-12 09:22:00,50.0,21.0,29.65,NE,52,4.5,8.1,32,0.00,,,0.00,WUHU216WMR968SP,2013-02-12 15:22:00,
2013-02-12 09:27:00,50.2,20.5,29.65,NE,55,3.6,8.1,31,0.00,,,0.00,WUHU216WMR968SP,2013-02-12 15:27:00,
2013-02-12 09:32:00,50.2,21.2,29.62,NE,53,3.1,8.1,32,0.00,,,0.00,WUHU216WMR968SP,2013-02-12 15:32:00,
2013-02-12 09:37:00,50.2,19.7,29.62,ENE,63,5.2,8.7,30,0.00,,,0.00,WUHU216WMR968SP,2013-02-12 15:37:00,
2013-02-12 09:42:00,50.2,20.5,29.62,SSE,157,0.0,8.7,31,0.00,,,0.00,WUHU216WMR968SP,2013-02-12 15:42:00,
2013-02-12 09:47:00,50.2,20.5,29.68,SE,142,2.2,5.8,31,0.00,,,0.00,WUHU216WMR968SP,2013-02-12 15:47:00,
2013-02-12 09:52:00,50.4,20.7,29.68,East,84,3.1,5.8,31,0.00,,,0.00,WUHU216WMR968SP,2013-02-12 15:52:00,
2013-02-12 09:57:00,50.7,20.2,29.68,ENE,70,4.0,5.8,30,0.00,,,0.00,WUHU216WMR968SP,2013-02-12 15:57:00,
2013-02-12 10:02:00,51.4,20.8,29.68,ESE,116,3.1,5.8,30,0.00,,,0.00,WUHU216WMR968SP,2013-02-12 16:02:00,
2013-02-12 10:07:00,51.6,20.9,29.68,East,98,2.6,5.8,30,0.00,,,0.00,WUHU216WMR968SP,2013-02-12 16:07:00,
2013-02-12 10:12:00,51.6,20.9,29.68,SSE,164,4.5,5.8,30,0.00,,,0.00,WUHU216WMR968SP,2013-02-12 16:12:00,
2013-02-12 10:17:00,51.1,19.7,29.68,SE,130,4.9,8.3,29,0.00,,,0.00,WUHU216WMR968SP,2013-02-12 16:17:00,
2013-02-12 10:22:00,50.7,19.4,29.68,ENE,70,4.6,8.3,29,0.00,,,0.00,WUHU216WMR968SP,2013-02-12 16:22:00,
2013-02-12 10:27:00,50.4,19.1,29.68,ENE,78,2.7,7.6,29,0.00,,,0.00,WUHU216WMR968SP,2013-02-12 16:27:00,
2013-02-12 10:32:00,50.2,18.9,29.65,NE,38,5.4,6.3,29,0.00,,,0.00,WUHU216WMR968SP,2013-02-12 16:32:00,
2013-02-12 10:37:00,50.2,18.9,29.65,NE,54,3.6,6.3,29,0.00,,,0.00,WUHU216WMR968SP,2013-02-12 16:37:00,
2013-02-12 10:42:00,50.2,18.9,29.65,ENE,62,2.9,5.8,29,0.00,,,0.00,WUHU216WMR968SP,2013-02-12 16:42:00,
2013-02-12 10:47:00,50.2,19.7,29.65,NE,46,0.0,5.8,30,0.00,,,0.00,WUHU216WMR968SP,2013-02-12 16:47:00,
2013-02-12 10:52:00,50.2,19.7,29.68,ESE,115,0.0,2.2,30,0.00,,,0.00,WUHU216WMR968SP,2013-02-12 16:52:00,
2013-02-12 10:57:00,50.2,19.7,29.68,NE,36,2.2,3.6,30,0.00,,,0.00,WUHU216WMR968SP,2013-02-12 16:57:00,
2013-02-12 11:02:00,50.2,19.7,29.62,NE,55,3.6,4.9,30,0.00,,,0.00,WUHU216WMR968SP,2013-02-12 17:02:00,
2013-02-12 11:07:00,49.8,19.4,29.62,NE,56,3.9,5.8,30,0.00,,,0.00,WUHU216WMR968SP,2013-02-12 17:07:00,
2013-02-12 11:12:00,49.8,20.1,29.62,NE,47,3.3,5.8,31,0.00,,,0.00,WUHU216WMR968SP,2013-02-12 17:12:00,
2013-02-12 11:17:00,49.8,20.1,29.65,ESE,104,2.2,5.4,31,0.00,,,0.00,WUHU216WMR968SP,2013-02-12 17:17:00,
2013-02-12 11:22:00,50.2,20.5,29.65,ESE,104,2.2,5.4,31,0.00,,,0.00,WUHU216WMR968SP,2013-02-12 17:22:00,
2013-02-12 11:27:00,50.4,19.9,29.65,ENE,64,3.1,5.8,30,0.00,,,0.00,WUHU216WMR968SP,2013-02-12 17:27:00,
2013-02-12 11:32:00,50.4,20.7,29.65,ENE,62,0.0,5.8,31,0.00,,,0.00,WUHU216WMR968SP,2013-02-12 17:32:00,
2013-02-12 11:37:00,50.5,20.0,29.65,ESE,106,0.0,4.0,30,0.00,,,0.00,WUHU216WMR968SP,2013-02-12 17:37:00,
2013-02-12 11:42:00,50.7,20.2,29.65,ESE,109,2.7,4.0,30,0.00,,,0.00,WUHU216WMR968SP,2013-02-12 17:42:00,
2013-02-12 11:47:00,50.9,20.3,29.68,East,98,0.0,4.0,30,0.00,,,0.00,WUHU216WMR968SP,2013-02-12 17:47:00,
2013-02-12 11:52:00,51.3,19.9,29.68,NNE,33,4.0,5.4,29,0.00,,,0.00,WUHU216WMR968SP,2013-02-12 17:52:00,
2013-02-12 11:57:00,51.6,20.1,29.68,NE,40,2.9,5.4,29,0.00,,,0.00,WUHU216WMR968SP,2013-02-12 17:57:00,
2013-02-12 12:02:00,52.2,19.9,29.65,NNE,14,0.0,4.9,28,0.00,,,0.00,WUHU216WMR968SP,2013-02-12 18:02:00,
2013-02-12 12:07:00,52.3,19.9,29.65,North,0,4.0,5.4,28,0.00,,,0.00,WUHU216WMR968SP,2013-02-12 18:07:00,
2013-02-12 12:12:00,52.2,19.9,29.65,NE,42,3.1,6.3,28,0.00,,,0.00,WUHU216WMR968SP,2013-02-12 18:12:00,
2013-02-12 12:17:00,52.0,18.8,29.65,NE,51,4.7,6.3,27,0.00,,,0.00,WUHU216WMR968SP,2013-02-12 18:17:00,
2013-02-12 12:22:00,52.0,18.8,29.65,NNE,33,3.6,6.3,27,0.00,,,0.00,WUHU216WMR968SP,2013-02-12 18:22:00,
2013-02-12 12:27:00,52.5,20.1,29.65,NE,36,2.7,4.9,28,0.00,,,0.00,WUHU216WMR968SP,2013-02-12 18:27:00,
2013-02-12 12:32:00,53.2,20.7,29.62,NNE,32,4.4,7.2,28,0.00,,,0.00,WUHU216WMR968SP,2013-02-12 18:32:00,
2013-02-12 12:37:00,53.8,20.4,29.62,ENE,62,3.6,7.2,27,0.00,,,0.00,WUHU216WMR968SP,2013-02-12 18:37:00,
2013-02-12 12:42:00,53.8,20.4,29.62,NE,47,3.6,6.3,27,0.00,,,0.00,WUHU216WMR968SP,2013-02-12 18:42:00,
2013-02-12 12:47:00,52.9,19.6,29.62,ENE,59,3.5,6.3,27,0.00,,,0.00,WUHU216WMR968SP,2013-02-12 18:47:00,
2013-02-12 12:52:00,52.2,19.0,29.62,ENE,67,3.6,6.3,27,0.00,,,0.00,WUHU216WMR968SP,2013-02-12 18:52:00,
2013-02-12 12:57:00,51.8,18.7,29.62,ENE,66,3.1,6.3,27,0.00,,,0.00,WUHU216WMR968SP,2013-02-12 18:57:00,
2013-02-12 13:02:00,51.6,18.5,29.62,ENE,58,3.6,5.8,27,0.00,,,0.00,WUHU216WMR968SP,2013-02-12 19:02:00,
2013-02-12 13:07:00,51.6,18.5,29.62,NE,47,3.4,5.8,27,0.00,,,0.00,WUHU216WMR968SP,2013-02-12 19:07:00,
2013-02-12 13:12:00,51.6,18.5,29.62,NE,46,3.1,5.8,27,0.00,,,0.00,WUHU216WMR968SP,2013-02-12 19:12:00,
2013-02-12 13:17:00,51.4,18.3,29.62,NE,40,3.1,4.9,27,0.00,,,0.00,WUHU216WMR968SP,2013-02-12 19:17:00,
2013-02-12 13:22:00,51.4,18.3,29.62,SSE,160,4.0,5.8,27,0.00,,,0.00,WUHU216WMR968SP,2013-02-12 19:22:00,
2013-02-12 13:27:00,51.3,18.2,29.62,NE,46,3.1,5.8,27,0.00,,,0.00,WUHU216WMR968SP,2013-02-12 19:27:00,
2013-02-12 13:32:00,51.4,19.2,29.62,ENE,69,2.6,4.0,28,0.00,,,0.00,WUHU216WMR968SP,2013-02-12 19:32:00,
2013-02-12 13:37:00,51.4,19.2,29.62,NE,48,2.2,4.0,28,0.00,,,0.00,WUHU216WMR968SP,2013-02-12 19:37:00,
2013-02-12 13:42:00,51.4,19.2,29.62,NE,52,2.2,3.6,28,0.00,,,0.00,WUHU216WMR968SP,2013-02-12 19:42:00,
2013-02-12 13:47:00,51.8,19.5,29.62,East,79,2.4,5.8,28,0.00,,,0.00,WUHU216WMR968SP,2013-02-12 19:47:00,
2013-02-12 13:52:00,51.8,18.7,29.62,East,85,2.8,5.8,27,0.00,,,0.00,WUHU216WMR968SP,2013-02-12 19:52:00,
2013-02-12 13:57:00,51.4,19.2,29.62,NE,55,4.9,5.8,28,0.00,,,0.00,WUHU216WMR968SP,2013-02-12 19:57:00,
2013-02-12 14:02:00,50.2,18.1,29.62,NE,55,3.0,6.3,28,0.00,,,0.00,WUHU216WMR968SP,2013-02-12 20:02:00,
2013-02-12 14:07:00,49.5,19.1,29.56,NE,44,4.5,6.3,30,0.00,,,0.00,WUHU216WMR968SP,2013-02-12 20:07:00,
2013-02-12 14:12:00,49.8,19.4,29.56,ENE,77,4.0,7.6,30,0.00,,,0.00,WUHU216WMR968SP,2013-02-12 20:12:00,
2013-02-12 14:17:00,50.4,18.3,29.56,East,88,4.9,8.7,28,0.00,,,0.00,WUHU216WMR968SP,2013-02-12 20:17:00,
2013-02-12 14:23:00,50.7,19.4,29.56,NE,43,3.6,8.7,29,0.00,,,0.00,WUHU216WMR968SP,2013-02-12 20:23:00,
2013-02-12 14:28:00,50.7,18.6,29.56,NNE,25,4.5,7.6,28,0.00,,,0.00,WUHU216WMR968SP,2013-02-12 20:28:00,
2013-02-12 14:33:00,50.7,18.6,29.53,ENE,75,3.5,7.6,28,0.00,,,0.00,WUHU216WMR968SP,2013-02-12 20:33:00,
2013-02-12 14:38:00,50.5,18.4,29.53,ENE,57,4.8,8.1,28,0.00,,,0.00,WUHU216WMR968SP,2013-02-12 20:38:00,
2013-02-12 14:43:00,50.5,18.4,29.53,NE,48,4.1,8.1,28,0.00,,,0.00,WUHU216WMR968SP,2013-02-12 20:43:00,
2013-02-12 14:48:00,49.8,18.6,29.53,NE,37,4.5,8.1,29,0.00,,,0.00,WUHU216WMR968SP,2013-02-12 20:48:00,
2013-02-12 14:53:00,48.0,18.6,29.53,NNE,31,3.6,8.1,31,0.00,,,0.00,WUHU216WMR968SP,2013-02-12 20:53:00,
2013-02-12 14:58:00,46.6,21.5,29.53,ENE,70,2.9,8.3,37,0.00,,,0.00,WUHU216WMR968SP,2013-02-12 20:58:00,
2013-02-12 15:03:00,46.4,21.9,29.53,ENE,77,2.4,8.3,38,0.00,,,0.00,WUHU216WMR968SP,2013-02-12 21:03:00,
2013-02-12 15:08:00,45.3,22.8,29.53,NE,45,3.6,5.8,41,0.00,,,0.00,WUHU216WMR968SP,2013-02-12 21:08:00,
2013-02-12 15:13:00,44.6,23.3,29.53,NNE,32,4.0,5.4,43,0.00,,,0.00,WUHU216WMR968SP,2013-02-12 21:13:00,
2013-02-12 15:18:00,44.2,24.6,29.50,NE,42,5.4,8.7,46,0.00,,,0.00,WUHU216WMR968SP,2013-02-12 21:18:00,
2013-02-12 15:23:00,44.1,26.1,29.50,ENE,57,4.0,8.7,49,0.00,,,0.00,WUHU216WMR968SP,2013-02-12 21:23:00,
2013-02-12 15:28:00,44.1,26.6,29.50,NNE,29,4.9,6.3,50,0.00,,,0.00,WUHU216WMR968SP,2013-02-12 21:28:00,
2013-02-12 15:33:00,44.1,27.6,29.50,NE,52,3.1,6.3,52,0.00,,,0.00,WUHU216WMR968SP,2013-02-12 21:33:00,
2013-02-12 15:38:00,43.7,27.2,29.50,NE,46,3.5,5.8,52,0.00,,,0.00,WUHU216WMR968SP,2013-02-12 21:38:00,
2013-02-12 15:43:00,43.7,27.7,29.50,NE,45,3.7,5.8,53,0.00,,,0.00,WUHU216WMR968SP,2013-02-12 21:43:00,
2013-02-12 15:48:00,43.7,27.2,29.50,NNE,24,3.1,5.8,52,0.00,,,0.00,WUHU216WMR968SP,2013-02-12 21:48:00,
2013-02-12 15:53:00,43.9,27.9,29.50,NE,34,2.7,4.9,53,0.00,,,0.00,WUHU216WMR968SP,2013-02-12 21:53:00,
2013-02-12 15:58:00,45.1,28.5,29.50,NE,45,2.4,4.0,52,0.00,,,0.00,WUHU216WMR968SP,2013-02-12 21:58:00,
2013-02-12 16:03:00,46.2,28.5,29.53,North,5,2.2,4.0,50,0.00,,,0.00,WUHU216WMR968SP,2013-02-12 22:03:00,
2013-02-12 16:08:00,46.8,28.6,29.53,North,6,0.0,3.1,49,0.00,,,0.00,WUHU216WMR968SP,2013-02-12 22:08:00,
2013-02-12 16:13:00,46.8,28.1,29.53,NE,45,2.8,4.0,48,0.00,,,0.00,WUHU216WMR968SP,2013-02-12 22:13:00,
2013-02-12 16:18:00,46.0,28.9,29.53,NE,49,3.6,5.4,51,0.00,,,0.00,WUHU216WMR968SP,2013-02-12 22:18:00,
2013-02-12 16:23:00,45.0,28.9,29.47,NE,55,2.9,5.8,53,0.00,,,0.00,WUHU216WMR968SP,2013-02-12 22:23:00,
2013-02-12 16:28:00,44.6,29.0,29.47,NE,41,0.0,5.8,54,0.00,,,0.00,WUHU216WMR968SP,2013-02-12 22:28:00,
2013-02-12 16:33:00,44.6,30.8,29.50,ENE,69,3.6,5.8,58,0.00,,,0.00,WUHU216WMR968SP,2013-02-12 22:33:00,
2013-02-12 16:38:00,44.1,32.0,29.50,ENE,65,2.5,5.8,60,0.00,,,0.00,WUHU216WMR968SP,2013-02-12 22:38:00,
2013-02-12 16:43:00,43.9,32.0,29.50,ESE,108,3.1,5.4,61,0.00,,,0.00,WUHU216WMR968SP,2013-02-12 22:43:00,
2013-02-12 16:48:00,43.7,32.0,29.50,ENE,72,3.4,5.4,62,0.00,,,0.00,WUHU216WMR968SP,2013-02-12 22:48:00,
2013-02-12 16:53:00,43.5,31.4,29.50,ENE,70,2.8,5.4,62,0.00,,,0.00,WUHU216WMR968SP,2013-02-12 22:53:00,
2013-02-12 16:58:00,43.7,32.0,29.50,ENE,65,2.7,5.4,63,0.00,,,0.00,WUHU216WMR968SP,2013-02-12 22:58:00,
2013-02-12 17:03:00,43.9,33.8,29.50,NE,37,4.0,5.4,64,0.00,,,0.00,WUHU216WMR968SP,2013-02-12 23:03:00,
2013-02-12 17:08:00,44.4,32.0,29.50,ENE,69,2.7,5.4,62,0.00,,,0.00,WUHU216WMR968SP,2013-02-12 23:08:00,
2013-02-12 17:13:00,44.8,32.0,29.50,ENE,57,2.2,4.0,61,0.00,,,0.00,WUHU216WMR968SP,2013-02-12 23:13:00,
2013-02-12 17:18:00,45.0,32.0,29.50,East,101,0.0,4.9,59,0.00,,,0.00,WUHU216WMR968SP,2013-02-12 23:18:00,
2013-02-12 17:23:00,45.1,31.3,29.50,NE,48,3.1,4.9,58,0.00,,,0.00,WUHU216WMR968SP,2013-02-12 23:23:00,
2013-02-12 17:28:00,45.3,31.0,29.50,NNE,32,3.1,4.9,57,0.00,,,0.00,WUHU216WMR968SP,2013-02-12 23:28:00,
2013-02-12 17:33:00,45.7,32.0,29.50,NNE,24,3.6,4.9,56,0.00,,,0.00,WUHU216WMR968SP,2013-02-12 23:33:00,
2013-02-12 17:38:00,45.9,30.2,29.50,North,357,4.5,7.6,54,0.00,,,0.00,WUHU216WMR968SP,2013-02-12 23:38:00,
2013-02-12 17:43:00,45.9,29.7,29.50,North,5,4.0,7.6,53,0.00,,,0.00,WUHU216WMR968SP,2013-02-12 23:43:00,
2013-02-12 17:48:00,45.9,29.3,29.50,North,5,4.0,6.3,52,0.00,,,0.00,WUHU216WMR968SP,2013-02-12 23:48:00,
2013-02-12 17:53:00,45.7,29.1,29.50,NW,324,4.0,6.3,52,0.00,,,0.00,WUHU216WMR968SP,2013-02-12 23:53:00,
2013-02-12 17:58:00,45.5,29.4,29.50,North,2,3.1,6.3,53,0.00,,,0.00,WUHU216WMR968SP,2013-02-12 23:58:00,
2013-02-12 18:03:00,45.5,29.4,29.50,North,353,4.0,6.3,53,0.00,,,0.00,WUHU216WMR968SP,2013-02-13 00:03:00,
2013-02-12 18:08:00,45.5,29.4,29.50,NE,42,4.5,6.3,53,0.00,,,0.00,WUHU216WMR968SP,2013-02-13 00:08:00,
2013-02-12 18:13:00,45.5,32.0,29.50,NE,46,3.1,5.8,55,0.00,,,0.00,WUHU216WMR968SP,2013-02-13 00:13:00,
2013-02-12 18:18:00,45.5,32.0,29.50,NNW,348,2.2,5.4,58,0.00,,,0.00,WUHU216WMR968SP,2013-02-13 00:18:00,
2013-02-12 18:23:00,45.3,31.4,29.50,NE,55,3.6,5.4,58,0.00,,,0.00,WUHU216WMR968SP,2013-02-13 00:23:00,
2013-02-12 18:28:00,45.3,32.0,29.50,NE,36,4.0,5.8,59,0.00,,,0.00,WUHU216WMR968SP,2013-02-13 00:28:00,
2013-02-12 18:33:00,45.3,32.0,29.47,NNE,20,4.0,6.3,59,0.00,,,0.00,WUHU216WMR968SP,2013-02-13 00:33:00,
2013-02-12 18:38:00,45.3,32.0,29.47,NNE,15,4.5,6.3,59,0.00,,,0.00,WUHU216WMR968SP,2013-02-13 00:38:00,
2013-02-12 18:43:00,45.3,32.0,29.47,NE,49,3.5,5.4,59,0.00,,,0.00,WUHU216WMR968SP,2013-02-13 00:43:00,
2013-02-12 18:48:00,45.3,32.0,29.47,NNE,33,4.5,6.3,59,0.00,,,0.00,WUHU216WMR968SP,2013-02-13 00:48:00,
2013-02-12 18:53:00,45.3,31.4,29.47,NE,43,3.6,6.7,58,0.00,,,0.00,WUHU216WMR968SP,2013-02-13 00:53:00,
2013-02-12 18:58:00,45.5,32.0,29.47,North,4,5.8,8.7,57,0.00,,,0.00,WUHU216WMR968SP,2013-02-13 00:58:00,
2013-02-12 19:03:00,45.5,32.0,29.47,NNE,33,5.1,9.2,56,0.00,,,0.00,WUHU216WMR968SP,2013-02-13 01:03:00,
2013-02-12 19:08:00,45.7,32.0,29.47,NE,38,4.0,9.2,55,0.00,,,0.00,WUHU216WMR968SP,2013-02-13 01:08:00,
2013-02-12 19:13:00,45.7,32.0,29.47,North,356,3.8,8.1,55,0.00,,,0.00,WUHU216WMR968SP,2013-02-13 01:13:00,
2013-02-12 19:18:00,45.5,32.0,29.47,NNE,21,3.2,6.3,55,0.00,,,0.00,WUHU216WMR968SP,2013-02-13 01:18:00,
2013-02-12 19:23:00,45.5,32.0,29.47,NNE,25,3.6,7.2,56,0.00,,,0.00,WUHU216WMR968SP,2013-02-13 01:23:00,
2013-02-12 19:28:00,45.5,32.0,29.47,NNE,27,3.0,7.2,56,0.00,,,0.00,WUHU216WMR968SP,2013-02-13 01:28:00,
2013-02-12 19:33:00,45.3,30.6,29.47,NNE,13,2.7,4.9,56,0.00,,,0.00,WUHU216WMR968SP,2013-02-13 01:33:00,
2013-02-12 19:38:00,45.3,30.6,29.47,NE,34,3.9,5.8,56,0.00,,,0.00,WUHU216WMR968SP,2013-02-13 01:38:00,
2013-02-12 19:43:00,45.3,30.6,29.47,NE,50,4.0,5.8,56,0.00,,,0.00,WUHU216WMR968SP,2013-02-13 01:43:00,
2013-02-12 19:49:00,45.3,30.6,29.44,NE,53,2.7,5.8,56,0.00,,,0.00,WUHU216WMR968SP,2013-02-13 01:49:00,
2013-02-12 19:54:00,45.3,30.6,29.44,NNE,30,2.7,5.8,56,0.00,,,0.00,WUHU216WMR968SP,2013-02-13 01:54:00,
2013-02-12 19:59:00,45.3,30.1,29.44,NE,56,3.7,5.8,55,0.00,,,0.00,WUHU216WMR968SP,2013-02-13 01:59:00,
2013-02-12 20:04:00,45.3,30.1,29.44,NE,44,4.9,6.3,55,0.00,,,0.00,WUHU216WMR968SP,2013-02-13 02:04:00,
2013-02-12 20:09:00,45.3,30.1,29.44,ENE,70,4.0,6.3,55,0.00,,,0.00,WUHU216WMR968SP,2013-02-13 02:09:00,
2013-02-12 20:14:00,45.3,30.1,29.44,East,97,3.2,6.3,55,0.00,,,0.00,WUHU216WMR968SP,2013-02-13 02:14:00,
2013-02-12 20:19:00,45.3,30.1,29.44,NE,35,2.2,4.9,55,0.00,,,0.00,WUHU216WMR968SP,2013-02-13 02:19:00,
2013-02-12 20:24:00,45.3,30.1,29.44,NE,47,3.1,4.9,55,0.00,,,0.00,WUHU216WMR968SP,2013-02-13 02:24:00,
2013-02-12 20:29:00,45.3,30.1,29.44,NE,48,2.2,5.8,55,0.00,,,0.00,WUHU216WMR968SP,2013-02-13 02:29:00,
2013-02-12 20:34:00,45.3,30.1,29.44,NE,56,4.4,7.6,55,0.00,,,0.00,WUHU216WMR968SP,2013-02-13 02:34:00,
2013-02-12 20:39:00,45.3,30.1,29.44,East,86,3.1,7.6,55,0.00,,,0.00,WUHU216WMR968SP,2013-02-13 02:39:00,
2013-02-12 20:44:00,45.3,30.1,29.44,ENE,67,2.2,5.4,55,0.00,,,0.00,WUHU216WMR968SP,2013-02-13 02:44:00,
2013-02-12 20:49:00,45.3,30.1,29.41,ENE,61,2.7,5.4,55,0.00,,,0.00,WUHU216WMR968SP,2013-02-13 02:49:00,
2013-02-12 20:54:00,45.5,32.0,29.41,ENE,75,3.6,5.8,55,0.00,,,0.00,WUHU216WMR968SP,2013-02-13 02:54:00,
2013-02-12 20:59:00,45.5,32.0,29.41,NNE,31,2.2,5.8,55,0.00,,,0.00,WUHU216WMR968SP,2013-02-13 02:59:00,
2013-02-12 21:04:00,45.5,32.0,29.41,East,82,3.1,5.8,55,0.00,,,0.00,WUHU216WMR968SP,2013-02-13 03:04:00,
2013-02-12 21:09:00,45.5,32.0,29.41,East,81,4.0,6.3,55,0.00,,,0.00,WUHU216WMR968SP,2013-02-13 03:09:00,
2013-02-12 21:14:00,45.5,32.0,29.41,NE,53,4.5,7.2,55,0.00,,,0.00,WUHU216WMR968SP,2013-02-13 03:14:00,
2013-02-12 21:19:00,45.5,32.0,29.38,ENE,57,4.9,7.2,55,0.00,,,0.00,WUHU216WMR968SP,2013-02-13 03:19:00,
2013-02-12 21:24:00,45.5,32.0,29.38,East,83,3.0,7.6,55,0.00,,,0.00,WUHU216WMR968SP,2013-02-13 03:24:00,
2013-02-12 21:29:00,45.5,32.0,29.38,ENE,74,4.5,8.1,55,0.00,,,0.00,WUHU216WMR968SP,2013-02-13 03:29:00,
2013-02-12 21:34:00,45.5,32.0,29.38,ENE,65,4.9,8.1,56,0.00,,,0.00,WUHU216WMR968SP,2013-02-13 03:34:00,
2013-02-12 21:39:00,45.5,32.0,29.38,ESE,122,2.2,6.3,56,0.00,,,0.00,WUHU216WMR968SP,2013-02-13 03:39:00,
2013-02-12 21:44:00,45.5,32.0,29.38,NE,34,2.7,5.4,56,0.00,,,0.00,WUHU216WMR968SP,2013-02-13 03:44:00,
2013-02-12 21:49:00,45.5,32.0,29.41,East,83,0.0,4.9,56,0.00,,,0.00,WUHU216WMR968SP,2013-02-13 03:49:00,
2013-02-12 21:54:00,45.5,32.0,29.41,East,84,3.1,4.9,56,0.00,,,0.00,WUHU216WMR968SP,2013-02-13 03:54:00,
2013-02-12 21:59:00,45.7,32.0,29.41,NE,52,4.5,6.3,55,0.00,,,0.00,WUHU216WMR968SP,2013-02-13 03:59:00,
2013-02-12 22:04:00,45.7,30.0,29.41,ENE,75,4.0,6.3,54,0.00,,,0.00,WUHU216WMR968SP,2013-02-13 04:04:00,
2013-02-12 22:09:00,45.7,30.0,29.41,ENE,76,3.2,6.3,54,0.00,,,0.00,WUHU216WMR968SP,2013-02-13 04:09:00,
2013-02-12 22:14:00,45.9,29.7,29.41,NE,43,5.4,7.6,53,0.00,,,0.00,WUHU216WMR968SP,2013-02-13 04:14:00,
2013-02-12 22:19:00,45.9,29.7,29.41,North,353,3.1,7.6,53,0.00,,,0.00,WUHU216WMR968SP,2013-02-13 04:19:00,
2013-02-12 22:24:00,45.9,29.3,29.41,NE,37,0.0,6.3,52,0.00,,,0.00,WUHU216WMR968SP,2013-02-13 04:24:00,
2013-02-12 22:29:00,45.9,29.3,29.41,NE,36,0.0,3.1,52,0.00,,,0.00,WUHU216WMR968SP,2013-02-13 04:29:00,
2013-02-12 22:34:00,45.9,29.7,29.41,South,170,0.0,2.7,53,0.00,,,0.00,WUHU216WMR968SP,2013-02-13 04:34:00,
2013-02-12 22:39:00,45.9,29.7,29.41,ENE,74,2.2,4.0,53,0.00,,,0.00,WUHU216WMR968SP,2013-02-13 04:39:00,
2013-02-12 22:44:00,45.7,29.5,29.41,SSE,153,3.5,6.3,53,0.00,,,0.00,WUHU216WMR968SP,2013-02-13 04:44:00,
2013-02-12 22:49:00,45.1,29.5,29.41,South,191,0.0,6.3,54,0.00,,,0.00,WUHU216WMR968SP,2013-02-13 04:49:00,
2013-02-12 22:54:00,44.4,32.0,29.41,SSW,194,3.1,8.1,59,0.00,,,0.00,WUHU216WMR968SP,2013-02-13 04:54:00,
2013-02-12 22:59:00,43.7,32.0,29.41,East,90,2.2,8.1,60,0.00,,,0.00,WUHU216WMR968SP,2013-02-13 04:59:00,
2013-02-12 23:00:00,43.7,32.0,29.41,East,88,2.2,5.8,60,0.00,,,0.00,WUHU216WMR968SP,2013-02-13 05:00:00,
2013-02-12 23:05:00,43.2,31.1,29.41,East,100,0.0,3.1,62,0.00,,,0.00,WUHU216WMR968SP,2013-02-13 05:05:00,
2013-02-12 23:10:00,43.0,32.0,29.41,ENE,67,2.2,3.6,63,0.00,,,0.00,WUHU216WMR968SP,2013-02-13 05:10:00,
2013-02-12 23:15:00,42.8,32.0,29.41,East,100,2.7,3.6,65,0.00,,,0.00,WUHU216WMR968SP,2013-02-13 05:15:00,
2013-02-12 23:21:00,42.8,32.0,29.41,East,94,0.0,3.6,67,0.00,,,0.00,WUHU216WMR968SP,2013-02-13 05:21:00,
2013-02-12 23:26:00,42.8,33.8,29.41,East,94,0.0,3.1,68,0.00,,,0.00,WUHU216WMR968SP,2013-02-13 05:26:00,
2013-02-12 23:31:00,43.0,33.8,29.41,East,94,0.0,0.0,71,0.00,,,0.00,WUHU216WMR968SP,2013-02-13 05:31:00,
2013-02-12 23:38:00,43.0,35.6,29.41,East,94,0.0,0.0,77,0.00,,,0.00,WUHU216WMR968SP,2013-02-13 05:38:00,
2013-02-12 23:43:00,42.8,37.4,29.41,East,94,0.0,0.0,79,0.00,,,0.00,WUHU216WMR968SP,2013-02-13 05:43:00,
2013-02-12 23:48:00,42.8,37.4,29.41,East,94,0.0,0.0,80,0.00,,,0.00,WUHU216WMR968SP,2013-02-13 05:48:00,
2013-02-12 23:53:00,42.8,37.4,29.41,East,94,0.0,0.0,80,0.00,,,0.00,WUHU216WMR968SP,2013-02-13 05:53:00,
2013-02-12 23:58:00,42.8,37.4,29.41,East,94,0.0,0.0,81,0.00,,,0.00,WUHU216WMR968SP,2013-02-13 05:58:00,